Time;durP1;ratioP1;P1;durP2;ratioP2;P2;SDS_P1;SDS_P2;PMS_P1;PMS_P2;Temp;Humidity;BMP_temperature;BMP_pressure;BME280_temperature;BME280_humidity;BME280_pressure;Samples;Min_cycle;Max_cycle;Signal;HPM_P1;HPM_P2
2021/12/31 00:00:17;;;;;;;1.43;0.90;;;12.10;99.90;;;;;;5063265;28;20219;-58
2021/12/31 00:02:44;;;;;;;1.20;1.10;;;12.20;99.90;;;;;;5047114;28;20581;-58
2021/12/31 00:05:11;;;;;;;1.77;1.40;;;12.20;99.90;;;;;;5058814;28;20907;-57
2021/12/31 00:07:38;;;;;;;1.63;1.10;;;12.20;99.90;;;;;;5054288;28;20202;-58
2021/12/31 00:10:07;;;;;;;1.43;1.33;;;12.20;99.90;;;;;;5062289;28;20198;-57
2021/12/31 00:12:34;;;;;;;1.50;1.40;;;12.20;99.90;;;;;;5063424;28;20599;-45
2021/12/31 00:15:01;;;;;;;1.47;1.30;;;12.20;99.90;;;;;;5049254;28;20203;-45
2021/12/31 00:17:29;;;;;;;1.40;1.30;;;12.20;99.90;;;;;;5064324;28;20221;-43
2021/12/31 00:20:02;;;;;;;2.10;1.37;;;12.20;99.90;;;;;;5039560;28;20245;-42
2021/12/31 00:22:53;;;;;;;1.77;1.67;;;12.20;99.90;;;;;;5058461;28;20223;-44
2021/12/31 00:25:20;;;;;;;2.50;1.90;;;12.30;99.90;;;;;;5064251;28;20783;-45
2021/12/31 00:27:47;;;;;;;2.03;1.70;;;12.30;99.90;;;;;;5060986;28;20616;-48
2021/12/31 00:30:14;;;;;;;2.00;1.43;;;12.30;99.90;;;;;;5059169;28;20191;-43
2021/12/31 00:32:42;;;;;;;2.10;1.90;;;12.30;99.90;;;;;;5062072;28;20305;-45
2021/12/31 00:35:10;;;;;;;2.00;1.90;;;12.30;99.90;;;;;;5049147;28;23544;-44
2021/12/31 00:37:39;;;;;;;3.07;2.10;;;12.30;99.90;;;;;;5062031;28;20239;-48
2021/12/31 00:40:08;;;;;;;5.20;2.37;;;12.30;99.90;;;;;;5062130;28;20218;-44
2021/12/31 00:42:35;;;;;;;3.60;1.90;;;12.30;99.90;;;;;;5063002;28;20226;-47
2021/12/31 00:45:02;;;;;;;3.00;2.20;;;12.30;99.90;;;;;;5056594;28;20898;-46
2021/12/31 00:47:29;;;;;;;2.53;2.20;;;12.30;99.90;;;;;;5063658;28;20202;-44
2021/12/31 00:49:57;;;;;;;2.23;2.03;;;12.30;99.90;;;;;;5059937;28;20195;-43
2021/12/31 00:52:23;;;;;;;2.30;2.00;;;12.30;99.90;;;;;;5049632;28;20226;-42
2021/12/31 00:54:50;;;;;;;4.37;2.53;;;12.30;99.90;;;;;;5059371;28;20869;-48
2021/12/31 00:57:17;;;;;;;2.77;2.50;;;12.30;99.90;;;;;;5063683;28;20199;-45
2021/12/31 00:59:43;;;;;;;3.00;2.10;;;12.30;99.90;;;;;;5060521;28;20199;-46
2021/12/31 01:02:12;;;;;;;2.40;2.30;;;12.40;99.90;;;;;;5046614;28;20233;-45
2021/12/31 01:04:39;;;;;;;2.60;2.10;;;12.30;99.90;;;;;;5060799;28;20830;-48
2021/12/31 01:07:07;;;;;;;5.00;3.30;;;12.30;99.90;;;;;;5047345;28;20562;-45
2021/12/31 01:09:36;;;;;;;5.03;2.97;;;12.30;99.90;;;;;;5060325;28;20187;-45
2021/12/31 01:12:06;;;;;;;3.00;2.70;;;12.30;99.90;;;;;;5063294;28;20218;-45
2021/12/31 01:14:36;;;;;;;3.40;2.90;;;12.30;99.90;;;;;;5060175;28;20199;-43
2021/12/31 01:17:07;;;;;;;5.70;3.30;;;12.30;99.90;;;;;;5057569;28;20201;-43
2021/12/31 01:19:46;;;;;;;6.07;4.00;;;12.30;99.90;;;;;;5060542;28;20194;-44
2021/12/31 01:22:15;;;;;;;5.67;3.50;;;12.30;99.90;;;;;;5049039;28;20222;-46
2021/12/31 01:24:42;;;;;;;5.80;3.63;;;12.30;99.90;;;;;;5056525;28;20198;-47
2021/12/31 01:27:09;;;;;;;8.40;4.73;;;12.30;99.90;;;;;;5062301;28;20230;-47
2021/12/31 01:29:36;;;;;;;5.43;3.67;;;12.30;99.90;;;;;;5060208;28;20217;-46
2021/12/31 01:32:02;;;;;;;8.43;4.57;;;12.40;99.90;;;;;;5058428;28;20210;-46
2021/12/31 01:34:29;;;;;;;6.70;3.87;;;12.30;99.90;;;;;;5058932;28;20186;-46
2021/12/31 01:36:56;;;;;;;4.83;3.73;;;12.30;99.90;;;;;;5063082;28;20206;-44
2021/12/31 01:39:24;;;;;;;5.77;3.20;;;12.30;99.90;;;;;;5044182;28;20709;-45
2021/12/31 01:41:50;;;;;;;6.90;3.90;;;12.40;99.90;;;;;;5058615;28;20240;-45
2021/12/31 01:44:17;;;;;;;6.77;3.77;;;12.40;99.90;;;;;;5054328;28;20567;-48
2021/12/31 01:46:54;;;;;;;8.27;3.87;;;12.40;99.90;;;;;;5061657;28;20194;-46
2021/12/31 01:49:22;;;;;;;5.20;3.60;;;12.40;99.90;;;;;;5055012;28;20214;-48
2021/12/31 01:51:49;;;;;;;7.17;3.80;;;12.40;99.90;;;;;;5062919;28;20635;-43
2021/12/31 01:54:16;;;;;;;5.87;4.30;;;12.40;99.90;;;;;;5046209;28;20209;-46
2021/12/31 01:56:44;;;;;;;5.03;4.23;;;12.40;99.90;;;;;;5061193;28;20194;-42
2021/12/31 01:59:13;;;;;;;5.93;4.20;;;12.40;99.90;;;;;;5061455;28;20206;-45
2021/12/31 02:01:40;;;;;;;6.43;4.10;;;12.40;99.90;;;;;;5060945;28;20231;-43
2021/12/31 02:04:07;;;;;;;14.43;4.10;;;12.40;99.90;;;;;;5056372;28;20206;-48
2021/12/31 02:06:33;;;;;;;8.40;3.47;;;12.40;99.90;;;;;;5059418;28;20182;-44
2021/12/31 02:09:02;;;;;;;5.87;3.70;;;12.40;99.90;;;;;;5048517;28;20226;-44
2021/12/31 02:11:29;;;;;;;8.30;3.97;;;12.40;99.90;;;;;;5051330;28;20203;-46
2021/12/31 02:13:57;;;;;;;7.03;2.33;;;12.40;99.90;;;;;;5058123;28;20198;-45
2021/12/31 02:16:24;;;;;;;10.60;3.93;;;12.40;99.90;;;;;;5061681;28;20209;-46
2021/12/31 02:18:51;;;;;;;8.67;3.43;;;12.40;99.90;;;;;;5055372;28;20206;-46
2021/12/31 02:21:20;;;;;;;10.30;3.70;;;12.40;99.90;;;;;;5061655;28;20222;-42
2021/12/31 02:23:51;;;;;;;5.70;3.47;;;12.40;99.90;;;;;;5050550;28;20226;-43
2021/12/31 02:26:18;;;;;;;7.93;3.67;;;12.40;99.90;;;;;;5061365;28;20210;-46
2021/12/31 02:28:45;;;;;;;8.07;3.57;;;12.40;99.90;;;;;;5060705;28;20198;-46
2021/12/31 02:31:12;;;;;;;9.90;4.47;;;12.40;99.90;;;;;;5065258;28;20326;-48
2021/12/31 02:33:39;;;;;;;9.23;3.97;;;12.40;99.90;;;;;;5065468;28;20223;-45
2021/12/31 02:36:07;;;;;;;9.97;4.00;;;12.40;99.90;;;;;;5058442;28;20955;-44
2021/12/31 02:38:35;;;;;;;10.17;4.07;;;12.40;99.90;;;;;;5065871;28;20225;-45
2021/12/31 02:41:03;;;;;;;9.00;4.00;;;12.40;99.90;;;;;;5051609;28;20213;-43
2021/12/31 02:43:29;;;;;;;6.07;3.83;;;12.30;99.90;;;;;;5066029;28;20664;-43
2021/12/31 02:45:56;;;;;;;8.53;4.03;;;12.30;99.90;;;;;;5062173;28;20202;-44
2021/12/31 02:48:25;;;;;;;11.40;4.33;;;12.30;99.90;;;;;;5066377;28;20209;-45
2021/12/31 02:50:54;;;;;;;9.83;4.20;;;12.30;99.90;;;;;;5057572;28;20290;-46
2021/12/31 02:53:25;;;;;;;12.50;4.43;;;12.30;99.90;;;;;;5066314;28;20723;-43
2021/12/31 02:56:00;;;;;;;11.03;4.10;;;12.30;99.90;;;;;;5047895;28;20721;-45
2021/12/31 02:58:27;;;;;;;8.60;3.97;;;12.30;99.90;;;;;;5063165;28;20712;-43
2021/12/31 03:00:54;;;;;;;14.87;4.20;;;12.30;99.90;;;;;;5061482;28;20221;-47
2021/12/31 03:03:21;;;;;;;12.80;4.03;;;12.30;99.90;;;;;;5066053;28;20223;-44
2021/12/31 03:05:49;;;;;;;11.27;3.50;;;12.30;99.90;;;;;;5059871;28;20207;-44
2021/12/31 03:08:17;;;;;;;6.27;3.50;;;12.30;99.90;;;;;;5063859;28;20203;-46
2021/12/31 03:10:45;;;;;;;8.43;3.60;;;12.30;99.90;;;;;;5056769;28;20202;-46
2021/12/31 03:13:14;;;;;;;13.13;4.07;;;12.30;99.90;;;;;;5058352;28;20229;-45
2021/12/31 03:15:43;;;;;;;6.20;3.47;;;12.30;99.90;;;;;;5065856;28;20195;-45
2021/12/31 03:18:11;;;;;;;9.87;3.50;;;12.40;99.90;;;;;;5072813;28;20540;-46
2021/12/31 03:20:43;;;;;;;10.27;4.07;;;12.40;99.90;;;;;;5073245;28;20194;-44
2021/12/31 03:23:10;;;;;;;6.53;3.30;;;12.40;99.90;;;;;;5049415;28;20933;-45
2021/12/31 03:25:37;;;;;;;6.63;3.20;;;12.40;99.90;;;;;;5065322;28;20198;-46
2021/12/31 03:28:05;;;;;;;8.50;3.83;;;12.40;99.90;;;;;;5061797;28;20206;-44
2021/12/31 03:30:34;;;;;;;13.63;3.53;;;12.40;99.90;;;;;;5065534;28;20553;-48
2021/12/31 03:33:00;;;;;;;6.10;3.07;;;12.40;99.90;;;;;;5061427;28;20238;-45
2021/12/31 03:35:27;;;;;;;8.80;3.30;;;12.40;99.90;;;;;;5065067;28;20202;-43
2021/12/31 03:37:55;;;;;;;8.30;3.60;;;12.40;99.90;;;;;;5048002;28;20205;-45
2021/12/31 03:40:22;;;;;;;7.13;3.17;;;12.30;99.90;;;;;;5064048;28;20191;-44
2021/12/31 03:42:48;;;;;;;8.50;3.20;;;12.40;99.90;;;;;;5063100;28;20226;-44
2021/12/31 03:45:15;;;;;;;7.63;2.90;;;12.40;99.90;;;;;;5063842;28;20193;-45
2021/12/31 03:47:43;;;;;;;9.17;3.20;;;12.40;99.90;;;;;;5064150;28;20198;-45
2021/12/31 03:50:10;;;;;;;7.57;3.30;;;12.30;99.90;;;;;;5062651;28;20190;-45
2021/12/31 03:52:38;;;;;;;9.30;2.90;;;12.30;99.90;;;;;;5047080;28;20614;-48
2021/12/31 03:55:06;;;;;;;10.73;3.63;;;12.40;99.90;;;;;;5049258;28;20994;-47
2021/12/31 03:57:33;;;;;;;8.13;3.03;;;12.30;99.90;;;;;;5064582;28;20203;-44
2021/12/31 03:59:59;;;;;;;11.10;3.03;;;12.40;99.90;;;;;;5061017;28;20202;-43
2021/12/31 04:02:26;;;;;;;15.23;3.20;;;12.40;99.90;;;;;;5065079;28;20223;-46
2021/12/31 04:04:54;;;;;;;5.63;3.07;;;12.30;99.90;;;;;;5061523;28;20215;-47
2021/12/31 04:07:21;;;;;;;7.93;2.73;;;12.40;99.90;;;;;;5064137;28;20253;-43
2021/12/31 04:09:48;;;;;;;7.00;2.93;;;12.30;99.90;;;;;;5048482;28;20286;-47
2021/12/31 04:12:15;;;;;;;6.60;2.90;;;12.40;99.90;;;;;;5062777;28;20221;-43
2021/12/31 04:14:42;;;;;;;7.17;2.90;;;12.40;99.90;;;;;;5056225;28;20198;-46
2021/12/31 04:17:09;;;;;;;7.67;3.30;;;12.40;99.90;;;;;;5061984;28;20916;-45
2021/12/31 04:19:35;;;;;;;8.07;2.93;;;12.30;99.90;;;;;;5063334;28;20206;-45
2021/12/31 04:22:04;;;;;;;12.73;2.83;;;12.30;99.90;;;;;;5059619;28;20218;-46
2021/12/31 04:24:52;;;;;;;5.43;2.53;;;12.40;99.90;;;;;;5064107;28;20222;-43
2021/12/31 04:27:18;;;;;;;7.17;3.10;;;12.40;99.90;;;;;;5061524;28;20221;-45
2021/12/31 04:29:50;;;;;;;8.60;2.80;;;12.40;99.90;;;;;;5062537;28;20226;-46
2021/12/31 04:32:17;;;;;;;7.47;2.80;;;12.30;99.90;;;;;;5063483;28;20745;-44
2021/12/31 04:34:44;;;;;;;6.73;2.70;;;12.30;99.90;;;;;;5062541;28;20554;-45
2021/12/31 04:37:12;;;;;;;8.93;3.33;;;12.30;99.90;;;;;;5061857;28;20195;-43
2021/12/31 04:39:38;;;;;;;6.47;2.57;;;12.30;99.90;;;;;;5060203;28;20210;-46
2021/12/31 04:42:05;;;;;;;11.50;4.53;;;12.30;99.90;;;;;;5050776;28;20219;-47
2021/12/31 04:44:32;;;;;;;7.67;3.07;;;12.30;99.90;;;;;;5063936;28;20198;-46
2021/12/31 04:46:59;;;;;;;8.30;3.03;;;12.30;99.90;;;;;;5059736;28;20195;-46
2021/12/31 04:49:26;;;;;;;10.80;3.27;;;12.30;99.90;;;;;;5064107;28;20206;-45
2021/12/31 04:51:53;;;;;;;6.10;2.70;;;12.30;99.90;;;;;;5059702;28;20738;-44
2021/12/31 04:54:21;;;;;;;8.30;2.80;;;12.30;99.90;;;;;;5063770;28;20198;-47
2021/12/31 04:56:51;;;;;;;5.13;2.67;;;12.30;99.90;;;;;;5047200;28;20206;-50
2021/12/31 04:59:18;;;;;;;6.43;2.53;;;12.30;99.90;;;;;;5063301;28;20668;-43
2021/12/31 05:01:45;;;;;;;9.90;2.97;;;12.30;99.90;;;;;;5054027;28;20223;-45
2021/12/31 05:04:11;;;;;;;9.67;2.87;;;12.30;99.90;;;;;;5060862;28;20229;-44
2021/12/31 05:06:38;;;;;;;7.73;2.70;;;12.30;99.90;;;;;;5056836;28;20545;-45
2021/12/31 05:09:05;;;;;;;6.20;2.87;;;12.30;99.90;;;;;;5060377;28;20198;-48
2021/12/31 05:11:33;;;;;;;4.67;2.57;;;12.40;99.90;;;;;;5063492;28;20590;-43
2021/12/31 05:13:59;;;;;;;4.73;2.83;;;12.40;99.90;;;;;;5044593;28;20228;-48
2021/12/31 05:16:26;;;;;;;12.37;2.87;;;12.40;99.90;;;;;;5061826;28;20190;-44
2021/12/31 05:18:52;;;;;;;8.97;3.77;;;12.40;99.90;;;;;;5059556;28;20199;-46
2021/12/31 05:21:19;;;;;;;6.27;3.13;;;12.40;99.90;;;;;;5063704;28;20198;-42
2021/12/31 05:23:46;;;;;;;6.60;2.73;;;12.40;99.90;;;;;;5054672;28;20683;-47
2021/12/31 05:26:12;;;;;;;9.60;2.50;;;12.40;99.90;;;;;;5061622;28;20195;-45
2021/12/31 05:28:40;;;;;;;11.10;3.07;;;12.40;99.90;;;;;;5036980;28;20330;-43
2021/12/31 05:31:08;;;;;;;8.13;2.67;;;12.50;99.90;;;;;;5061272;28;20572;-46
2021/12/31 05:33:35;;;;;;;8.50;3.37;;;12.50;99.90;;;;;;5041359;28;20218;-48
2021/12/31 05:36:02;;;;;;;8.13;2.80;;;12.50;99.90;;;;;;5061252;28;20218;-44
2021/12/31 05:38:28;;;;;;;8.83;2.60;;;12.50;99.90;;;;;;5054060;28;20214;-48
2021/12/31 05:40:55;;;;;;;8.47;2.97;;;12.50;99.90;;;;;;5063010;28;20210;-47
2021/12/31 05:43:22;;;;;;;7.00;2.50;;;12.50;99.90;;;;;;5050035;28;20225;-48
2021/12/31 05:45:50;;;;;;;4.47;2.80;;;12.50;99.90;;;;;;5058197;28;20571;-47
2021/12/31 05:48:16;;;;;;;5.40;2.60;;;12.50;99.90;;;;;;5059292;28;20198;-47
2021/12/31 05:50:43;;;;;;;9.10;3.60;;;12.60;99.90;;;;;;5058192;28;20202;-45
2021/12/31 05:53:10;;;;;;;10.80;3.77;;;12.60;99.90;;;;;;5062517;28;20214;-48
2021/12/31 05:55:36;;;;;;;6.10;2.80;;;12.60;99.90;;;;;;5055432;28;20199;-44
2021/12/31 05:58:03;;;;;;;8.00;3.07;;;12.60;99.90;;;;;;5062632;28;20206;-44
2021/12/31 06:00:30;;;;;;;7.70;2.73;;;12.60;99.90;;;;;;5044744;28;20281;-43
2021/12/31 06:02:58;;;;;;;7.83;2.90;;;12.60;99.90;;;;;;5063059;28;20211;-49
2021/12/31 06:05:27;;;;;;;8.40;3.23;;;12.60;99.90;;;;;;5056964;28;20891;-44
2021/12/31 06:07:55;;;;;;;7.60;3.10;;;12.60;99.90;;;;;;5066921;28;20651;-45
2021/12/31 06:10:22;;;;;;;8.00;2.70;;;12.60;99.90;;;;;;5057319;28;20212;-47
2021/12/31 06:12:48;;;;;;;6.53;2.80;;;12.60;99.90;;;;;;5066361;28;20222;-44
2021/12/31 06:15:17;;;;;;;5.17;2.70;;;12.60;99.90;;;;;;5048077;28;20217;-49
2021/12/31 06:17:43;;;;;;;10.03;3.30;;;12.60;99.90;;;;;;5061786;28;20198;-45
2021/12/31 06:20:12;;;;;;;8.47;3.83;;;12.60;99.90;;;;;;5066420;28;20198;-45
2021/12/31 06:22:39;;;;;;;8.07;3.40;;;12.60;99.90;;;;;;5053785;28;20297;-47
2021/12/31 06:25:07;;;;;;;8.50;3.37;;;12.60;99.90;;;;;;5065357;28;20207;-45
2021/12/31 06:27:33;;;;;;;9.43;4.63;;;12.60;99.90;;;;;;5062493;28;20459;-46
2021/12/31 06:30:00;;;;;;;6.40;3.63;;;12.60;99.90;;;;;;5052526;28;20207;-45
2021/12/31 06:32:27;;;;;;;11.33;3.10;;;12.60;99.90;;;;;;5062184;28;20222;-46
2021/12/31 06:34:53;;;;;;;10.37;4.70;;;12.60;99.90;;;;;;5065632;28;20205;-42
2021/12/31 06:37:21;;;;;;;6.80;3.80;;;12.70;99.90;;;;;;5052382;28;20195;-44
2021/12/31 06:39:48;;;;;;;10.93;5.00;;;12.70;99.90;;;;;;5065153;28;20214;-46
2021/12/31 06:42:15;;;;;;;5.77;4.00;;;12.70;99.90;;;;;;5065115;28;20233;-46
2021/12/31 06:44:41;;;;;;;4.33;3.90;;;12.60;99.90;;;;;;5063028;28;20198;-47
2021/12/31 06:47:09;;;;;;;7.87;4.27;;;12.60;99.90;;;;;;5051417;28;20210;-43
2021/12/31 06:49:36;;;;;;;5.83;4.27;;;12.60;99.90;;;;;;5062515;28;20225;-45
2021/12/31 06:52:03;;;;;;;9.90;5.50;;;12.60;99.90;;;;;;5060292;28;20223;-43
2021/12/31 06:54:31;;;;;;;8.47;4.00;;;12.60;99.90;;;;;;5062164;28;20202;-43
2021/12/31 06:56:57;;;;;;;6.13;4.73;;;12.60;99.90;;;;;;5065814;28;20202;-47
2021/12/31 06:59:24;;;;;;;8.03;5.13;;;12.60;99.90;;;;;;5062833;28;20256;-46
2021/12/31 07:01:51;;;;;;;8.23;3.80;;;12.60;99.90;;;;;;5050596;28;20679;-46
2021/12/31 07:04:17;;;;;;;5.80;4.47;;;12.50;99.90;;;;;;5063671;28;20206;-48
2021/12/31 07:06:44;;;;;;;8.43;4.70;;;12.60;99.90;;;;;;5062812;28;20206;-45
2021/12/31 07:09:10;;;;;;;6.83;4.40;;;12.60;99.90;;;;;;5059395;28;20698;-46
2021/12/31 07:11:38;;;;;;;6.50;4.10;;;12.60;99.90;;;;;;5062724;28;20191;-45
2021/12/31 07:14:05;;;;;;;6.03;4.30;;;12.60;99.90;;;;;;5064387;28;20195;-44
2021/12/31 07:16:31;;;;;;;7.80;6.27;;;12.60;99.90;;;;;;5046207;28;20209;-47
2021/12/31 07:18:58;;;;;;;8.30;5.30;;;12.60;99.90;;;;;;5065017;28;20207;-43
2021/12/31 07:21:25;;;;;;;5.50;5.00;;;12.60;99.90;;;;;;5062575;28;20659;-44
2021/12/31 07:23:51;;;;;;;5.97;5.10;;;12.60;99.90;;;;;;5052323;28;20223;-45
2021/12/31 07:26:18;;;;;;;7.27;4.63;;;12.60;99.90;;;;;;5062627;28;20939;-45
2021/12/31 07:28:46;;;;;;;10.57;5.67;;;12.60;99.90;;;;;;5065829;28;20202;-43
2021/12/31 07:31:14;;;;;;;6.63;5.57;;;12.60;99.90;;;;;;5056002;28;20217;-43
2021/12/31 07:33:41;;;;;;;7.80;4.70;;;12.70;99.90;;;;;;5050869;28;20222;-45
2021/12/31 07:36:07;;;;;;;10.63;5.73;;;12.60;99.90;;;;;;5053156;28;20202;-44
2021/12/31 07:38:36;;;;;;;5.47;4.97;;;12.70;99.90;;;;;;5052960;28;20306;-44
2021/12/31 07:41:04;;;;;;;9.33;5.70;;;12.70;99.90;;;;;;5054055;28;20671;-45
2021/12/31 07:43:31;;;;;;;6.77;5.40;;;12.80;99.90;;;;;;5053035;28;20223;-47
2021/12/31 07:46:00;;;;;;;5.93;4.83;;;12.70;99.90;;;;;;5057879;28;20694;-43
2021/12/31 07:48:26;;;;;;;5.10;4.43;;;12.70;99.90;;;;;;5040648;28;20204;-47
2021/12/31 07:50:54;;;;;;;5.17;4.20;;;12.80;99.90;;;;;;5057636;28;20555;-43
2021/12/31 07:55:56;;;;;;;6.87;4.33;;;12.80;99.90;;;;;;5091991;27;20492;-43
2021/12/31 07:58:24;;;;;;;7.67;4.90;;;12.80;99.90;;;;;;5070584;28;20194;-44
2021/12/31 08:00:51;;;;;;;7.10;5.00;;;12.80;99.90;;;;;;5057565;28;20218;-44
2021/12/31 08:03:17;;;;;;;5.87;4.80;;;12.90;99.90;;;;;;5050001;28;20225;-43
2021/12/31 08:05:44;;;;;;;7.93;5.37;;;12.90;99.90;;;;;;5063932;28;20205;-46
2021/12/31 08:08:10;;;;;;;8.23;5.73;;;12.90;99.90;;;;;;5068654;28;20202;-45
2021/12/31 08:10:38;;;;;;;7.43;6.67;;;12.80;99.90;;;;;;5058489;28;20218;-45
2021/12/31 08:13:06;;;;;;;8.43;6.00;;;12.90;99.90;;;;;;5068881;28;20227;-44
2021/12/31 08:15:33;;;;;;;4.90;4.50;;;12.90;99.90;;;;;;5060329;28;20229;-44
2021/12/31 08:18:00;;;;;;;5.20;4.43;;;12.90;99.90;;;;;;5068245;28;20208;-42
2021/12/31 08:20:27;;;;;;;7.73;5.50;;;12.90;99.90;;;;;;5056173;28;20790;-45
2021/12/31 08:22:54;;;;;;;7.00;5.00;;;12.90;99.90;;;;;;5070311;28;20222;-43
2021/12/31 08:25:21;;;;;;;7.97;6.00;;;12.90;99.90;;;;;;5060377;28;20205;-43
2021/12/31 08:27:48;;;;;;;5.90;4.93;;;12.90;99.90;;;;;;5067759;28;20332;-45
2021/12/31 08:30:16;;;;;;;5.83;5.23;;;12.90;99.90;;;;;;5072426;28;20750;-43
2021/12/31 08:32:43;;;;;;;7.53;5.43;;;12.80;99.90;;;;;;5058641;28;20237;-44
2021/12/31 08:35:10;;;;;;;5.40;4.83;;;12.80;99.90;;;;;;5052058;28;20226;-42
2021/12/31 08:37:38;;;;;;;5.60;5.03;;;12.90;99.90;;;;;;5062665;28;20210;-43
2021/12/31 08:40:05;;;;;;;5.70;5.20;;;12.90;99.90;;;;;;5064494;28;20203;-42
2021/12/31 08:42:32;;;;;;;5.20;4.70;;;13.00;99.90;;;;;;5056614;28;20218;-41
2021/12/31 08:44:59;;;;;;;6.07;4.50;;;13.00;99.90;;;;;;5064003;28;20199;-41
2021/12/31 08:47:27;;;;;;;5.17;4.43;;;13.00;99.90;;;;;;5056133;28;20198;-43
2021/12/31 08:49:53;;;;;;;6.50;4.80;;;13.00;99.90;;;;;;5053251;28;20702;-42
2021/12/31 08:52:20;;;;;;;6.23;4.90;;;13.00;99.90;;;;;;5061164;28;20210;-41
2021/12/31 08:54:46;;;;;;;5.77;4.90;;;13.10;99.90;;;;;;5058477;28;20726;-41
2021/12/31 08:57:13;;;;;;;7.30;4.47;;;13.00;99.90;;;;;;5064132;28;20203;-41
2021/12/31 08:59:40;;;;;;;4.23;3.93;;;13.10;99.90;;;;;;5070550;28;20191;-43
2021/12/31 09:02:07;;;;;;;4.50;3.87;;;13.10;99.90;;;;;;5076345;28;20578;-41
2021/12/31 09:04:35;;;;;;;4.97;4.33;;;13.10;99.90;;;;;;5060629;28;20186;-41
2021/12/31 09:07:01;;;;;;;7.10;3.90;;;13.20;99.90;;;;;;5042431;28;20211;-42
2021/12/31 09:09:28;;;;;;;5.33;3.83;;;13.20;99.90;;;;;;5049272;28;20199;-43
2021/12/31 09:11:56;;;;;;;4.87;4.10;;;13.20;99.90;;;;;;5050770;28;20234;-42
2021/12/31 09:14:23;;;;;;;6.87;3.50;;;13.20;99.90;;;;;;5042349;28;20223;-41
2021/12/31 09:16:50;;;;;;;5.13;3.97;;;13.20;99.90;;;;;;5059124;28;20195;-41
2021/12/31 09:19:17;;;;;;;5.30;3.17;;;13.20;99.90;;;;;;5040678;28;20199;-41
2021/12/31 09:21:46;;;;;;;4.33;3.13;;;13.20;99.90;;;;;;5041490;28;20207;-41
2021/12/31 09:24:13;;;;;;;4.00;3.70;;;13.20;99.90;;;;;;5050482;28;20207;-46
2021/12/31 09:26:39;;;;;;;6.20;3.90;;;13.20;99.90;;;;;;5045896;28;20225;-41
2021/12/31 09:29:06;;;;;;;3.80;3.40;;;13.20;99.90;;;;;;5054351;28;20206;-43
2021/12/31 09:31:33;;;;;;;3.97;3.10;;;13.20;99.90;;;;;;5053411;28;20202;-43
2021/12/31 09:33:59;;;;;;;3.33;2.83;;;13.20;99.90;;;;;;5050396;28;20214;-42
2021/12/31 09:36:26;;;;;;;5.17;2.87;;;13.20;99.90;;;;;;5035878;28;20211;-44
2021/12/31 09:38:54;;;;;;;5.27;2.73;;;13.30;99.90;;;;;;5055618;28;20226;-41
2021/12/31 09:41:20;;;;;;;2.87;2.30;;;13.30;99.90;;;;;;5043321;28;20958;-45
2021/12/31 09:43:50;;;;;;;5.00;2.70;;;13.30;99.90;;;;;;5052951;28;20247;-40
2021/12/31 09:46:17;;;;;;;5.10;3.00;;;13.30;99.90;;;;;;5047124;28;20191;-41
2021/12/31 09:48:44;;;;;;;3.47;2.57;;;13.30;99.90;;;;;;5056670;28;20207;-42
2021/12/31 09:51:10;;;;;;;3.97;2.30;;;13.30;99.90;;;;;;5045323;28;20200;-41
2021/12/31 09:53:37;;;;;;;3.70;2.27;;;13.40;99.90;;;;;;5039336;28;20757;-45
2021/12/31 09:56:07;;;;;;;5.50;2.77;;;13.30;99.90;;;;;;5055496;28;20248;-42
2021/12/31 09:58:35;;;;;;;3.67;2.47;;;13.40;99.90;;;;;;5048185;28;20207;-44
2021/12/31 10:01:02;;;;;;;3.80;2.43;;;13.40;99.90;;;;;;5056655;28;20281;-41
2021/12/31 10:03:30;;;;;;;4.07;2.50;;;13.40;99.90;;;;;;5049446;28;20215;-43
2021/12/31 10:05:59;;;;;;;3.10;2.20;;;13.40;99.90;;;;;;5052323;28;20226;-38
2021/12/31 10:08:27;;;;;;;2.90;2.43;;;13.40;99.90;;;;;;5034863;28;20354;-43
2021/12/31 10:11:10;;;;;;;3.63;2.20;;;13.40;99.90;;;;;;5052152;28;20675;-40
2021/12/31 10:13:39;;;;;;;2.23;2.00;;;13.40;99.90;;;;;;5049321;28;20596;-46
2021/12/31 10:16:06;;;;;;;3.17;2.10;;;13.40;99.90;;;;;;5052056;28;20583;-41
2021/12/31 10:18:35;;;;;;;2.73;2.30;;;13.40;99.90;;;;;;5039992;28;20202;-41
2021/12/31 10:21:02;;;;;;;2.97;1.80;;;13.40;99.90;;;;;;5044366;28;20214;-44
2021/12/31 10:23:29;;;;;;;3.87;2.70;;;13.40;99.90;;;;;;5063858;28;20206;-42
2021/12/31 10:26:12;;;;;;;2.07;1.70;;;13.40;99.90;;;;;;5032343;28;20191;-43
2021/12/31 10:28:52;;;;;;;2.50;2.10;;;13.40;99.90;;;;;;5045249;28;20203;-42
2021/12/31 10:31:19;;;;;;;3.33;2.30;;;13.40;99.90;;;;;;5048065;28;20198;-40
2021/12/31 10:33:47;;;;;;;4.40;2.20;;;13.40;99.90;;;;;;5048656;28;20238;-45
2021/12/31 10:36:34;;;;;;;2.30;2.00;;;13.40;99.90;;;;;;5046550;28;20206;-42
2021/12/31 10:39:03;;;;;;;3.43;2.03;;;13.40;99.90;;;;;;5037224;28;20822;-42
2021/12/31 10:41:31;;;;;;;2.43;1.70;;;13.40;99.90;;;;;;5058942;28;20659;-44
2021/12/31 10:43:59;;;;;;;2.87;1.90;;;13.40;99.90;;;;;;5040663;28;20853;-41
2021/12/31 10:46:27;;;;;;;3.30;1.97;;;13.40;99.90;;;;;;5047400;28;20202;-44
2021/12/31 10:48:55;;;;;;;3.13;2.27;;;13.40;99.90;;;;;;5039240;28;20246;-42
2021/12/31 10:51:38;;;;;;;3.67;2.30;;;13.40;99.90;;;;;;5045439;28;20199;-41
2021/12/31 10:54:18;;;;;;;5.27;2.67;;;13.40;99.90;;;;;;5044989;28;20264;-41
2021/12/31 10:56:46;;;;;;;2.40;2.07;;;13.40;99.90;;;;;;5033375;28;20279;-43
2021/12/31 10:59:13;;;;;;;2.90;2.13;;;13.40;99.90;;;;;;5048920;28;20206;-43
2021/12/31 11:01:41;;;;;;;3.83;2.30;;;13.40;99.90;;;;;;5051402;28;20659;-44
2021/12/31 11:04:11;;;;;;;2.70;2.03;;;13.40;99.90;;;;;;5045993;28;20198;-42
2021/12/31 11:06:41;;;;;;;2.80;1.83;;;13.40;99.90;;;;;;5044581;28;20223;-41
2021/12/31 11:09:08;;;;;;;3.23;2.47;;;13.40;99.90;;;;;;5043189;28;20211;-43
2021/12/31 11:11:35;;;;;;;3.13;2.00;;;13.40;99.90;;;;;;5036875;28;20210;-41
2021/12/31 11:14:04;;;;;;;4.07;2.13;;;13.40;99.90;;;;;;5050602;28;20211;-44
2021/12/31 11:16:30;;;;;;;3.10;2.20;;;13.40;99.90;;;;;;5044170;28;20219;-42
2021/12/31 11:18:57;;;;;;;2.80;2.10;;;13.40;99.90;;;;;;5049900;28;20198;-44
2021/12/31 11:21:24;;;;;;;4.57;2.10;;;13.40;99.90;;;;;;5055344;28;20207;-43
2021/12/31 11:23:51;;;;;;;2.60;2.20;;;13.40;99.90;;;;;;5042995;28;20222;-41
2021/12/31 11:26:28;;;;;;;2.70;2.20;;;13.40;99.90;;;;;;5046602;28;20597;-43
2021/12/31 11:28:55;;;;;;;2.33;2.00;;;13.40;99.90;;;;;;5032380;28;20211;-43
2021/12/31 11:31:26;;;;;;;2.60;2.40;;;13.40;99.90;;;;;;5048591;28;20206;-44
2021/12/31 11:34:16;;;;;;;4.60;2.50;;;13.40;99.90;;;;;;5041947;28;20226;-43
2021/12/31 11:36:46;;;;;;;2.33;2.13;;;13.40;99.90;;;;;;5054936;28;20219;-43
2021/12/31 11:39:18;;;;;;;2.80;2.17;;;13.40;99.90;;;;;;5054610;28;20701;-41
2021/12/31 11:41:45;;;;;;;3.77;2.53;;;13.40;99.90;;;;;;5040785;28;20217;-42
2021/12/31 11:44:14;;;;;;;2.87;2.10;;;13.40;99.90;;;;;;5044692;28;20213;-44
2021/12/31 11:46:44;;;;;;;3.03;2.50;;;13.40;99.90;;;;;;5048501;28;20678;-42
2021/12/31 11:49:17;;;;;;;3.93;2.50;;;13.40;99.90;;;;;;5052359;28;20280;-40
2021/12/31 11:52:01;;;;;;;2.70;2.50;;;13.40;99.90;;;;;;5053233;28;20199;-42
2021/12/31 11:54:28;;;;;;;2.20;1.90;;;13.40;99.90;;;;;;5052924;28;20217;-42
2021/12/31 11:57:10;;;;;;;3.90;2.13;;;13.30;99.90;;;;;;5044438;28;20226;-45
2021/12/31 11:59:48;;;;;;;4.03;2.33;;;13.40;99.90;;;;;;5040576;28;20202;-45
2021/12/31 12:02:20;;;;;;;3.00;2.60;;;13.30;99.90;;;;;;5046363;28;20232;-41
2021/12/31 12:05:08;;;;;;;3.00;2.70;;;13.20;99.90;;;;;;5049697;28;20622;-42
2021/12/31 12:07:40;;;;;;;3.17;2.87;;;13.20;99.90;;;;;;5053496;28;20301;-42
2021/12/31 12:10:12;;;;;;;3.20;2.90;;;13.10;99.90;;;;;;5046715;28;20230;-45
2021/12/31 12:12:40;;;;;;;2.77;2.57;;;13.00;99.90;;;;;;5051432;28;20230;-41
2021/12/31 12:15:23;;;;;;;3.73;3.40;;;12.90;99.90;;;;;;5038296;28;20237;-42
2021/12/31 12:17:52;;;;;;;5.17;3.30;;;12.80;99.90;;;;;;5043392;28;20206;-41
2021/12/31 12:20:20;;;;;;;3.47;3.17;;;12.80;99.90;;;;;;5061834;28;20210;-42
2021/12/31 12:22:50;;;;;;;3.07;2.83;;;12.60;99.90;;;;;;5054178;28;20218;-41
2021/12/31 12:25:19;;;;;;;5.00;3.47;;;12.60;99.90;;;;;;5057900;28;20187;-43
2021/12/31 12:27:47;;;;;;;3.97;3.27;;;12.60;99.90;;;;;;5043499;28;20612;-41
2021/12/31 12:30:15;;;;;;;4.10;3.50;;;12.50;99.90;;;;;;5034334;28;20293;-42
2021/12/31 12:32:54;;;;;;;5.07;3.70;;;12.50;99.90;;;;;;5049822;28;20285;-42
2021/12/31 12:35:23;;;;;;;3.90;3.60;;;12.40;99.90;;;;;;5055070;28;20211;-43
2021/12/31 12:37:57;;;;;;;4.60;3.43;;;12.40;99.90;;;;;;5052272;28;20736;-41
2021/12/31 12:40:36;;;;;;;4.07;3.70;;;12.40;99.90;;;;;;5052058;28;20198;-41
2021/12/31 12:43:06;;;;;;;5.03;3.70;;;12.40;99.90;;;;;;5050440;28;20233;-42
2021/12/31 12:45:33;;;;;;;4.83;4.33;;;12.30;99.90;;;;;;5044442;28;20195;-43
2021/12/31 12:48:00;;;;;;;6.03;4.53;;;12.30;99.90;;;;;;5043836;28;20257;-44
2021/12/31 12:50:28;;;;;;;7.63;4.90;;;12.30;99.90;;;;;;5054541;28;20272;-44
2021/12/31 12:52:56;;;;;;;6.60;4.67;;;12.30;99.90;;;;;;5055720;28;20584;-45